Latest Weather Observations for Lockhart River

IDQ60801

Issued at 11:03 am EST Sunday 18 February 2018 (issued every 30 minutes, with the page automatically refreshed every 10 minutes)

About weather observations | Map of weather stations | Latest weather observations for QLD | Other Formats
Station Details ID: 028008 Name: LOCKHART RIVER AIRPORT Lat: -12.79 Lon: 143.30 Height: 18.5 m
Data from the previous 72 hours. | See also: Recent months at Lockhart River
Date/Time
EST
Temp
°C
App
Temp
°C
Dew
Point
°C
Rel
Hum
%
Delta-T
°C
Wind Press
QNH
hPa
Press
MSL
hPa
Rain since
9am
mm
Dir  Spd
km/h
Gust
km/h
Spd
kts
Gust
kts
18/11:00am 29.3 35.0 25.9 82 2.4 N 7 11 4 6 1010.1 1010.0 0.0
18/10:30am 28.5 33.8 24.9 81 2.5 N 6 7 3 4 1010.8 1010.7 0.0
18/10:00am 28.1 33.6 25.3 85 2.0 SSE 6 9 3 5 1011.3 1011.2 0.0
18/09:30am 27.4 33.9 25.0 87 1.7 CALM 0 0 0 0 1011.3 1011.2 0.0
18/09:00am 27.1 30.9 25.3 90 1.3 SE 15 17 8 9 1011.7 1011.6 23.0
18/08:30am 26.1 30.3 24.7 92 1.0 ESE 11 17 6 9 1011.3 1011.2 23.0
18/08:00am 25.6 31.8 24.6 94 0.7 CALM 0 9 0 5 1010.8 1010.7 23.0
18/07:30am 25.0 30.5 24.1 95 0.6 SSE 2 7 1 4 1010.6 1010.5 23.0
18/07:00am 25.1 30.0 24.4 96 0.5 SE 6 9 3 5 1010.2 1010.1 23.0
18/06:30am 25.2 30.1 24.7 97 0.3 SE 7 9 4 5 1009.9 1009.8 23.0
18/06:00am 25.0 30.9 24.7 98 0.2 E 2 9 1 5 1009.5 1009.4 23.0
18/05:30am 24.6 30.5 24.1 97 0.3 CALM 0 0 0 0 1009.1 1009.0 23.0
18/05:00am 24.4 30.2 23.9 97 0.3 CALM 0 0 0 0 1009.0 1008.9 23.0
18/04:30am 24.3 30.0 23.8 97 0.3 CALM 0 0 0 0 1008.6 1008.5 23.0
18/04:00am 24.4 30.1 23.7 96 0.5 CALM 0 0 0 0 1008.4 1008.3 23.0
18/03:30am 24.3 29.9 23.6 96 0.5 CALM 0 6 0 3 1008.1 1008.0 23.0
18/03:00am 24.8 30.2 23.8 94 0.7 ESE 2 9 1 5 1007.9 1007.7 23.0
18/02:30am 24.6 30.3 23.7 95 0.6 CALM 0 0 0 0 1007.9 1007.8 23.0
18/02:00am 24.7 30.0 23.7 94 0.7 SW 2 6 1 3 1008.0 1007.9 23.0
18/01:30am 24.5 28.4 23.6 95 0.6 N 9 11 5 6 1007.9 1007.8 23.0
18/01:00am 24.7 30.4 23.8 95 0.6 CALM 0 0 0 0 1008.6 1008.5 22.8
18/12:30am 24.8 30.5 23.8 94 0.7 CALM 0 0 0 0 1009.2 1009.1 22.8
18/12:00am 25.0 29.7 24.0 94 0.7 SW 6 7 3 4 1009.6 1009.5 22.6
 
Date/Time
EST
Temp
°C
App
Temp
°C
Dew
Point
°C
Rel
Hum
%
Delta-T
°C
Wind Press
QNH
hPa
Press
MSL
hPa
Rain since
9am
mm
Dir  Spd
km/h
Gust
km/h
Spd
kts
Gust
kts
17/11:30pm 25.0 29.5 24.0 94 0.7 S 7 9 4 5 1009.9 1009.8 22.2
17/11:00pm 25.1 28.8 23.9 93 0.8 WSW 11 15 6 8 1010.1 1010.0 21.4
17/10:30pm 25.3 28.6 23.9 92 1.0 WSW 13 22 7 12 1010.3 1010.2 20.8
17/10:00pm 25.0 29.8 24.5 97 0.3 SW 7 13 4 7 1010.1 1010.0 20.8
17/09:30pm 25.1 30.0 24.4 96 0.5 WSW 6 9 3 5 1010.2 1010.1 20.8
17/09:00pm 24.7 28.2 24.2 97 0.3 N 13 19 7 10 1009.7 1009.7 20.8
17/08:39pm 24.5 28.6 24.0 97 0.3 N 9 13 5 7 1009.4 - 20.8
17/08:37pm 24.5 28.5 23.8 96 0.5 N 9 11 5 6 1009.4 1009.3 20.8
17/08:30pm 24.4 28.0 23.7 96 0.5 NW 11 17 6 9 1009.4 1009.3 20.8
17/08:00pm 25.1 26.8 23.0 88 1.4 WSW 19 30 10 16 1010.1 1010.0 11.8
17/07:59pm 25.3 27.1 23.2 88 1.4 WSW 19 30 10 16 1010.1 1010.0 10.2
17/07:46pm 27.0 28.9 23.7 82 2.3 WNW 20 30 11 16 1010.0 1009.9 6.8
17/07:30pm 27.2 32.6 26.0 93 0.8 NNW 9 15 5 8 1008.7 1008.6 6.8
17/07:25pm 27.5 33.5 26.1 92 1.0 NW 6 11 3 6 1008.5 1008.4 6.8
17/07:00pm 27.3 34.5 26.1 93 0.9 CALM 0 6 0 3 1007.9 1007.8 6.8
17/06:30pm 27.5 33.0 26.1 92 1.0 W 9 9 5 5 1007.5 1007.4 6.8
17/06:00pm 28.0 33.8 26.0 89 1.4 NNW 7 11 4 6 1006.5 1006.4 6.8
17/05:30pm 28.9 34.5 25.7 83 2.3 SSE 7 11 4 6 1006.2 1006.1 6.8
17/05:00pm 27.8 32.8 25.4 87 1.7 SE 9 13 5 7 1006.1 1006.0 6.8
17/04:55pm 28.3 33.0 24.9 82 2.4 NNE 9 17 5 9 1006.1 - 6.8
17/04:52pm 28.2 32.6 25.0 83 2.2 NNE 11 17 6 9 1006.1 1006.0 6.8
17/04:30pm 27.5 28.7 23.9 81 2.5 SE 24 35 13 19 1006.2 1006.1 4.2
17/04:24pm 27.9 28.6 24.3 81 2.5 SE 28 41 15 22 1006.1 1006.0 2.4
17/04:21pm 29.1 30.6 25.5 81 2.5 SSE 28 41 15 22 1006.0 - 1.0
17/04:20pm 29.1 29.9 24.4 76 3.3 SSE 28 41 15 22 1006.0 - 0.8
17/04:19pm 29.1 31.4 24.4 76 3.3 SE 20 41 11 22 1006.0 1005.9 0.8
17/04:00pm 32.1 37.7 24.9 65 5.1 NNE 4 13 2 7 1005.8 1005.7 0.0
17/03:30pm 34.6 37.6 22.0 48 8.6 W 9 13 5 7 1006.2 1006.1 0.0
17/03:00pm 34.8 37.9 23.5 52 7.9 WNW 13 19 7 10 1006.7 1006.6 0.0
17/02:30pm 35.0 39.7 25.5 58 6.8 WNW 11 19 6 10 1007.0 1006.9 0.0
17/02:00pm 33.2 36.3 23.5 56 6.7 NNW 13 17 7 9 1007.4 1007.3 0.0
17/01:30pm 33.3 37.4 23.9 58 6.6 W 9 13 5 7 1007.7 1007.6 0.0
17/01:00pm 33.7 37.3 23.1 54 7.3 WNW 9 15 5 8 1008.1 1008.0 0.0
17/12:30pm 33.5 37.0 23.5 55 7.0 WNW 11 17 6 9 1008.7 1008.6 0.0
17/12:00pm 32.9 36.7 23.5 57 6.5 W 9 15 5 8 1009.2 1009.1 0.0
17/11:30am 32.1 36.5 24.4 63 5.4 NNW 9 13 5 7 1009.5 1009.4 0.0
17/11:00am 32.3 36.0 24.6 64 5.4 WNW 13 17 7 9 1009.8 1009.7 0.0
17/10:30am 31.6 35.4 24.7 67 4.8 WNW 13 19 7 10 1010.1 1010.0 0.0
17/10:00am 30.8 33.7 24.4 68 4.5 WSW 17 24 9 13 1010.5 1010.4 0.0
17/09:30am 30.5 34.5 25.1 73 3.8 W 13 17 7 9 1010.6 1010.5 0.0
17/09:00am 29.8 33.3 24.9 75 3.4 WNW 15 20 8 11 1010.4 1010.3 13.6
17/08:30am 28.9 33.7 25.1 80 2.7 NW 9 13 5 7 1010.3 1010.2 13.6
17/08:00am 27.5 32.8 24.9 86 1.8 NNW 6 7 3 4 1010.2 1010.1 13.4
17/07:30am 25.7 32.0 24.8 95 0.6 CALM 0 0 0 0 1010.0 1009.9 13.4
17/07:00am 24.7 30.7 24.2 97 0.3 CALM 0 2 0 1 1010.2 1010.1 13.4
17/06:30am 24.0 29.6 23.5 97 0.3 CALM 0 0 0 0 1009.7 1009.6 13.4
17/06:00am 23.7 29.0 23.0 96 0.5 CALM 0 0 0 0 1009.3 1009.2 13.4
17/05:30am 24.1 29.2 23.4 96 0.5 NNE 2 6 1 3 1009.1 1009.0 13.4
17/05:00am 24.0 29.4 23.3 96 0.5 CALM 0 0 0 0 1008.9 1008.8 13.4
17/04:30am 24.0 28.7 23.3 96 0.5 N 4 9 2 5 1008.6 1008.5 13.4
17/04:00am 24.3 29.8 23.4 95 0.6 CALM 0 0 0 0 1008.7 1008.6 13.4
17/03:30am 24.6 29.8 23.6 94 0.7 NW 2 7 1 4 1008.3 1008.2 13.4
17/03:00am 24.9 29.0 23.9 94 0.7 NNW 9 13 5 7 1008.1 1008.0 13.4
17/02:30am 24.2 29.6 23.3 95 0.6 CALM 0 0 0 0 1008.4 1008.3 13.4
17/02:00am 24.2 29.6 23.3 95 0.6 CALM 0 0 0 0 1008.9 1008.8 13.4
17/01:30am 24.2 29.2 23.2 94 0.7 WSW 2 7 1 4 1009.3 1009.2 13.4
17/01:00am 24.4 29.0 23.2 93 0.8 NNW 4 6 2 3 1009.6 1009.5 13.4
17/12:30am 24.3 28.2 22.9 92 0.9 NNW 7 11 4 6 1009.7 1009.6 13.4
17/12:00am 24.7 27.4 22.9 90 1.2 N 13 17 7 9 1010.0 1009.9 13.4
 
Date/Time
EST
Temp
°C
App
Temp
°C
Dew
Point
°C
Rel
Hum
%
Delta-T
°C
Wind Press
QNH
hPa
Press
MSL
hPa
Rain since
9am
mm
Dir  Spd
km/h
Gust
km/h
Spd
kts
Gust
kts
16/11:30pm 23.9 28.0 23.2 96 0.5 NW 7 11 4 6 1010.0 1009.9 13.4
16/11:00pm 23.8 29.1 23.1 96 0.5 CALM 0 0 0 0 1010.0 1009.9 13.4
16/10:30pm 24.3 29.4 23.3 94 0.7 WNW 2 6 1 3 1010.2 1010.1 13.4
16/10:00pm 24.1 28.3 23.1 94 0.7 NW 6 11 3 6 1009.6 1009.5 13.4
16/09:30pm 23.9 28.4 22.9 94 0.7 NNW 4 7 2 4 1009.5 1009.4 13.4
16/09:00pm 24.0 28.1 23.0 94 0.7 NNW 6 7 3 4 1009.4 1009.3 13.4
16/08:30pm 24.0 29.2 22.8 93 0.8 CALM 0 6 0 3 1009.3 1009.2 13.4
16/08:00pm 23.9 28.0 22.9 94 0.7 NNW 6 11 3 6 1009.1 1009.0 13.4
16/07:30pm 24.0 28.0 23.1 95 0.6 NW 7 9 4 5 1009.0 1008.9 13.4
16/07:00pm 23.9 28.0 23.2 96 0.5 NNW 7 9 4 5 1009.1 1009.0 13.4
16/06:30pm 24.1 27.8 23.2 95 0.6 NNW 9 15 5 8 1009.3 1009.2 13.4
16/06:00pm 24.2 26.9 23.5 96 0.5 NW 15 22 8 12 1010.1 1010.1 13.4
16/05:40pm 24.1 27.1 23.4 96 0.5 NNW 13 19 7 10 1010.8 - 13.4
16/05:37pm 24.1 27.1 23.4 96 0.5 NW 13 19 7 10 1010.8 1010.7 13.4
16/05:30pm 24.0 26.6 23.3 96 0.5 NW 15 24 8 13 1010.4 1010.3 13.2
16/05:07pm 24.6 26.1 22.7 89 1.3 SSE 19 28 10 15 1009.8 1009.7 9.6
16/05:06pm 24.6 26.0 22.5 88 1.4 SSE 19 28 10 15 1009.9 1009.8 9.2
16/05:00pm 24.9 27.3 23.7 93 0.8 S 17 28 9 15 1010.1 1010.0 7.4
16/04:46pm 25.3 25.4 23.2 88 1.4 SSE 28 39 15 21 1008.8 - 3.6
16/04:45pm 25.3 25.7 23.2 88 1.4 S 26 39 14 21 1008.8 1008.7 3.6
16/04:43pm 26.6 26.4 22.7 79 2.6 SSE 28 39 15 21 1008.4 - 0.4
16/04:41pm 27.7 29.0 23.3 77 3.0 S 22 35 12 19 1008.3 1008.2 0.0
16/04:30pm 29.2 33.7 25.2 79 2.8 NNW 11 17 6 9 1007.6 1007.5 0.0
16/04:00pm 29.7 33.9 24.8 75 3.4 N 11 17 6 9 1006.8 1006.7 0.0
16/03:30pm 29.7 31.7 22.2 64 5.1 N 15 30 8 16 1007.2 1007.1 0.0
16/03:00pm 32.9 37.7 25.7 66 5.1 WSW 11 28 6 15 1007.4 1007.3 0.0
16/02:30pm 33.9 39.4 26.1 63 5.6 N 9 19 5 10 1007.8 1007.7 0.0
16/02:00pm 33.7 38.9 25.7 63 5.7 E 9 15 5 8 1008.4 1008.3 0.0
16/01:30pm 34.3 39.7 25.4 60 6.3 NE 7 17 4 9 1009.0 1008.9 0.0
16/01:00pm 34.1 38.3 23.5 54 7.4 WSW 7 13 4 7 1009.7 1009.6 0.0
16/12:30pm 34.3 38.6 23.6 53 7.5 NW 7 15 4 8 1010.2 1010.1 0.0
16/12:00pm 33.5 37.7 24.1 58 6.6 SSW 9 15 5 8 1010.3 1010.3 0.0
16/11:30am 32.8 37.2 23.4 57 6.5 WSW 6 11 3 6 1010.8 1010.7 0.0
16/11:00am 31.9 35.7 23.4 60 5.9 NW 9 15 5 8 1011.3 1011.2 0.0
16/10:30am 31.6 35.5 24.2 65 5.2 W 11 19 6 10 1011.4 1011.3 0.0
16/10:00am 30.9 34.0 24.1 67 4.7 W 15 22 8 12 1011.9 1011.8 0.0
16/09:30am 30.4 33.7 23.8 68 4.6 WSW 13 20 7 11 1012.4 1012.3 0.0
16/09:00am 30.2 34.0 24.1 70 4.2 WSW 11 15 6 8 1012.5 1012.4 0.0
16/08:30am 29.4 33.4 23.8 72 3.9 WSW 9 15 5 8 1011.8 1011.7 0.0
16/08:00am 28.2 33.0 24.2 79 2.8 SSW 6 11 3 6 1011.8 1011.7 0.0
16/07:30am 26.9 31.0 23.2 80 2.5 SSW 7 11 4 6 1011.6 1011.5 0.0
16/07:00am 26.5 29.6 22.1 77 3.0 SW 9 17 5 9 1011.5 1011.4 0.0
16/06:30am 26.5 30.5 22.8 80 2.5 SW 6 17 3 9 1011.2 1011.1 0.0
16/06:00am 26.9 29.2 22.1 75 3.2 SW 13 17 7 9 1011.0 1010.9 0.0
16/05:30am 27.2 30.9 22.6 76 3.1 SSE 7 11 4 6 1010.5 1010.4 0.0
16/05:00am 27.1 30.8 23.3 80 2.6 NE 9 11 5 6 1010.2 1010.1 0.0
16/04:30am 27.7 30.8 23.5 78 2.9 W 13 19 7 10 1009.9 1009.8 0.0
16/04:00am 27.8 31.8 23.8 79 2.8 W 9 15 5 8 1009.9 1009.8 0.0
16/03:30am 27.8 31.1 23.8 79 2.8 W 13 24 7 13 1009.9 1009.8 0.0
16/03:00am 28.2 31.2 24.0 78 2.9 W 15 26 8 14 1009.9 1009.8 0.0
16/02:30am 27.9 31.1 23.7 78 2.9 W 13 19 7 10 1010.0 1009.9 0.0
16/02:00am 28.1 31.6 23.5 76 3.2 W 11 17 6 9 1010.2 1010.1 0.0
16/01:30am 28.1 30.5 23.7 77 3.0 W 17 28 9 15 1010.5 1010.4 0.0
16/01:00am 28.2 31.1 24.4 80 2.6 W 17 32 9 17 1011.0 1010.9 0.0
16/12:30am 27.8 33.1 24.4 82 2.4 NW 4 11 2 6 1011.1 1011.0 0.0
16/12:00am 27.8 33.4 24.2 81 2.5 SW 2 11 1 6 1011.0 1010.9 0.0
 
Date/Time
EST
Temp
°C
App
Temp
°C
Dew
Point
°C
Rel
Hum
%
Delta-T
°C
Wind Press
QNH
hPa
Press
MSL
hPa
Rain since
9am
mm
Dir  Spd
km/h
Gust
km/h
Spd
kts
Gust
kts
15/11:30pm 27.6 31.7 24.0 81 2.5 NNW 9 17 5 9 1011.0 1010.9 0.0
15/11:00pm 27.7 31.3 23.7 79 2.8 NNW 11 15 6 8 1011.2 1011.1 0.0
15/10:30pm 27.9 32.0 23.9 79 2.8 NNW 9 15 5 8 1011.1 1011.0 0.0
15/10:00pm 27.8 31.8 24.4 82 2.4 NNW 11 15 6 8 1011.1 1011.0 0.0
15/09:30pm 27.7 32.8 24.7 84 2.1 NNW 6 7 3 4 1010.3 1010.2 0.0
15/09:00pm 27.8 32.4 25.4 87 1.7 NW 11 15 6 8 1010.0 1010.0 0.0
15/08:30pm 27.9 33.3 25.5 87 1.7 NW 7 9 4 5 1009.7 1009.6 0.0
15/08:00pm 28.2 33.5 25.2 84 2.1 NNW 7 9 4 5 1009.1 1009.0 0.0
15/07:30pm 28.8 33.9 25.0 80 2.7 NNW 7 11 4 6 1008.7 1008.6 0.0
15/07:00pm 29.7 34.8 25.0 76 3.3 N 7 11 4 6 1008.5 1008.4 0.0
15/06:30pm 30.9 34.8 24.8 70 4.3 N 13 17 7 9 1008.5 1008.4 0.0
15/06:00pm 32.0 35.6 24.3 63 5.4 N 13 17 7 9 1008.2 1008.2 0.0
15/05:30pm 32.9 37.2 24.9 63 5.6 N 11 19 6 10 1008.1 1008.0 0.0
15/05:00pm 33.1 37.3 24.8 61 5.9 ENE 11 15 6 8 1008.3 1008.2 0.0
15/04:30pm 33.2 37.6 25.7 64 5.4 ENE 13 17 7 9 1008.4 1008.3 0.0
15/04:00pm 33.0 37.1 25.8 66 5.1 NE 15 20 8 11 1008.6 1008.5 0.0
15/03:30pm 33.5 37.7 26.0 65 5.4 E 15 20 8 11 1009.0 1008.9 0.0
15/03:00pm 33.2 36.7 25.5 64 5.5 ENE 17 24 9 13 1009.3 1009.2 0.0
15/02:30pm 33.7 37.0 25.1 60 6.1 E 17 22 9 12 1009.5 1009.4 0.0
15/02:00pm 34.2 39.1 25.9 62 5.9 NE 11 17 6 9 1010.1 1010.0 0.0
15/01:30pm 33.2 37.5 24.9 61 5.9 ENE 11 19 6 10 1010.4 1010.3 0.0
15/01:00pm 33.3 37.4 24.5 60 6.2 SSE 11 20 6 11 1010.9 1010.8 0.0
15/12:30pm 33.7 37.2 22.1 50 7.9 SW 7 11 4 6 1011.6 1011.5 0.0
15/12:00pm 33.5 37.6 23.2 54 7.1 S 7 13 4 7 1012.0 1012.0 0.0
15/11:30am 32.3 36.6 23.3 59 6.2 SSW 6 15 3 8 1012.4 1012.3 0.0

Other Formats:

Comma delimited format used in spreadsheet applications
http://www.bom.gov.au/fwo/IDQ60801/IDQ60801.94186.axf

JavaScript Object Notation format (JSON) in row-major order
http://www.bom.gov.au/fwo/IDQ60801/IDQ60801.94186.json